createdAt,value
2023-04-20T00:01:22.101Z,7.06
2023-04-20T00:06:29.854Z,6.78
2023-04-20T00:11:32.558Z,6.50
2023-04-20T00:16:35.304Z,6.64
2023-04-20T00:21:37.863Z,6.47
2023-04-20T00:26:40.421Z,6.52
2023-04-20T00:31:43.127Z,6.44
2023-04-20T00:36:45.653Z,6.29
2023-04-20T00:41:48.290Z,6.19
2023-04-20T00:46:54.000Z,6.10
2023-04-20T00:52:01.053Z,6.05
2023-04-20T00:57:04.706Z,5.99
2023-04-20T01:02:10.638Z,5.80
2023-04-20T01:07:16.503Z,5.71
2023-04-20T01:12:19.164Z,5.53
2023-04-20T01:17:22.409Z,5.38
2023-04-20T01:22:24.959Z,5.24
2023-04-20T01:27:27.679Z,5.12
2023-04-20T01:32:30.752Z,4.94
2023-04-20T01:37:35.514Z,4.81
2023-04-20T01:42:40.364Z,4.94
2023-04-20T01:47:43.229Z,4.76
2023-04-20T01:52:45.925Z,4.70
2023-04-20T01:57:48.804Z,4.62
2023-04-20T02:02:51.745Z,4.72
2023-04-20T02:07:54.497Z,4.63
2023-04-20T02:12:57.105Z,4.34
2023-04-20T02:18:00.502Z,4.41
2023-04-20T02:23:03.200Z,4.64
2023-04-20T02:28:05.775Z,4.93
2023-04-20T02:33:08.506Z,6.48
2023-04-20T02:38:11.030Z,7.75
2023-04-20T02:43:14.831Z,8.21
2023-04-20T02:48:17.803Z,7.86
2023-04-20T02:53:20.566Z,7.74
2023-04-20T02:58:29.458Z,7.27
2023-04-20T03:03:55.094Z,6.94
2023-04-20T03:08:58.081Z,6.90
2023-04-20T03:14:21.014Z,7.39
2023-04-20T03:19:24.355Z,7.75
2023-04-20T03:24:27.183Z,8.02
2023-04-20T03:29:31.803Z,8.15
2023-04-20T03:34:35.351Z,8.25
2023-04-20T03:39:38.523Z,8.09
2023-04-20T03:44:41.298Z,8.16
2023-04-20T03:49:44.924Z,8.13
2023-04-20T03:54:48.031Z,8.26
2023-04-20T03:59:52.719Z,8.13
2023-04-20T04:04:58.199Z,8.08
2023-04-20T04:10:04.972Z,7.85
2023-04-20T04:15:09.203Z,7.96
2023-04-20T04:20:19.884Z,8.00
2023-04-20T04:25:23.363Z,7.96
2023-04-20T04:30:27.349Z,8.07
2023-04-20T04:35:30.566Z,8.38
2023-04-20T04:40:33.768Z,8.58
2023-04-20T04:45:40.987Z,8.80
2023-04-20T04:50:46.785Z,9.09
2023-04-20T04:55:49.423Z,9.18
2023-04-20T05:00:52.158Z,9.37
2023-04-20T05:05:55.103Z,9.37
2023-04-20T05:10:58.174Z,9.86
2023-04-20T05:16:00.833Z,10.19
2023-04-20T05:21:03.470Z,10.57
2023-04-20T05:26:06.505Z,10.91
2023-04-20T05:31:09.262Z,11.22
2023-04-20T05:36:11.823Z,11.41
2023-04-20T05:41:14.717Z,11.88
2023-04-20T05:46:17.273Z,12.04
2023-04-20T05:51:20.001Z,12.28
2023-04-20T05:56:22.577Z,12.50
2023-04-20T06:01:25.478Z,12.85
2023-04-20T06:06:28.123Z,13.12
2023-04-20T06:11:31.392Z,13.36
2023-04-20T06:16:34.265Z,13.18
2023-04-20T06:21:36.946Z,13.29
2023-04-20T06:26:39.550Z,13.57
2023-04-20T06:31:42.455Z,13.77
2023-04-20T06:36:45.104Z,13.66
2023-04-20T06:41:47.826Z,13.84
2023-04-20T06:46:50.817Z,14.19
2023-04-20T06:51:53.537Z,14.33
2023-04-20T06:56:56.376Z,14.43
2023-04-20T07:01:59.164Z,14.26
2023-04-20T07:07:01.879Z,14.46
2023-04-20T07:12:04.708Z,14.70
2023-04-20T07:17:07.390Z,14.82
2023-04-20T07:22:09.945Z,14.60
2023-04-20T07:27:12.488Z,14.74
2023-04-20T07:32:15.243Z,15.18
2023-04-20T07:37:17.987Z,15.35
2023-04-20T07:42:21.559Z,15.90
2023-04-20T07:47:24.192Z,15.75
2023-04-20T07:52:27.072Z,16.35
2023-04-20T07:57:29.829Z,15.97
2023-04-20T08:02:33.317Z,16.34
2023-04-20T08:07:36.449Z,16.57
2023-04-20T08:12:40.315Z,16.23
2023-04-20T08:17:42.924Z,16.72
2023-04-20T08:22:45.748Z,17.31
2023-04-20T08:27:48.372Z,17.13
2023-04-20T08:32:51.127Z,16.41
2023-04-20T08:37:53.827Z,16.55
2023-04-20T08:42:57.144Z,16.39
2023-04-20T08:48:05.322Z,16.84
2023-04-20T08:53:09.759Z,16.81
2023-04-20T08:58:12.477Z,16.90
2023-04-20T09:03:15.557Z,16.61
2023-04-20T09:08:18.531Z,16.45
2023-04-20T09:13:23.200Z,16.81
2023-04-20T09:18:25.829Z,17.85
2023-04-20T09:23:28.435Z,17.86
2023-04-20T09:28:42.867Z,17.21
2023-04-20T09:33:45.792Z,17.16
2023-04-20T09:38:48.342Z,16.73
2023-04-20T09:43:51.445Z,17.26
2023-04-20T09:48:54.141Z,17.43
2023-04-20T09:53:58.839Z,18.24
2023-04-20T09:59:02.528Z,18.09
2023-04-20T10:04:11.150Z,17.31
2023-04-20T10:09:23.018Z,16.37
2023-04-20T10:14:26.649Z,15.36
2023-04-20T10:19:44.117Z,15.53
2023-04-20T10:24:47.107Z,15.74
2023-04-20T10:29:49.874Z,15.96
2023-04-20T10:35:10.197Z,16.06
2023-04-20T10:40:13.454Z,16.42
2023-04-20T10:45:16.087Z,16.41
2023-04-20T10:50:19.151Z,16.05
2023-04-20T10:55:23.876Z,16.21
2023-04-20T11:00:28.846Z,16.94
2023-04-20T11:05:31.507Z,16.20
2023-04-20T11:10:39.806Z,16.34
2023-04-20T11:15:42.407Z,16.29
2023-04-20T11:20:52.065Z,16.98
2023-04-20T11:25:56.419Z,17.83
2023-04-20T11:30:59.063Z,18.28
2023-04-20T11:36:02.382Z,16.98
2023-04-20T11:41:05.022Z,16.22
2023-04-20T11:46:20.873Z,16.19
2023-04-20T11:51:26.978Z,16.02
2023-04-20T11:56:29.559Z,15.99
2023-04-20T12:01:33.209Z,15.72
2023-04-20T12:06:35.862Z,15.41
2023-04-20T12:11:38.380Z,15.09
2023-04-20T12:16:41.056Z,15.18
2023-04-20T12:21:43.882Z,15.37
2023-04-20T12:26:47.092Z,15.36
2023-04-20T12:31:49.810Z,15.68
2023-04-20T12:37:35.520Z,16.20
2023-04-20T12:42:49.262Z,16.68
2023-04-20T12:48:00.333Z,16.80
2023-04-20T12:53:03.782Z,16.29
2023-04-20T12:58:06.440Z,16.44
2023-04-20T13:03:10.101Z,16.32
2023-04-20T13:08:12.859Z,16.13
2023-04-20T13:13:15.494Z,16.02
2023-04-20T13:18:18.386Z,15.84
2023-04-20T13:23:22.691Z,15.52
2023-04-20T13:28:25.794Z,15.15
2023-04-20T13:33:28.394Z,15.29
2023-04-20T13:38:31.090Z,15.29
2023-04-20T13:43:33.792Z,15.22
2023-04-20T13:48:36.506Z,15.41
2023-04-20T13:53:39.095Z,15.30
2023-04-20T13:58:41.849Z,15.37
2023-04-20T14:03:44.945Z,15.42
2023-04-20T14:08:48.236Z,15.80
2023-04-20T14:13:51.963Z,16.09
2023-04-20T14:18:54.635Z,16.16
2023-04-20T14:23:57.284Z,15.99
2023-04-20T14:29:00.057Z,15.71
2023-04-20T14:34:03.138Z,15.71
2023-04-20T14:39:05.764Z,15.73
2023-04-20T14:44:08.294Z,15.57
2023-04-20T14:49:10.892Z,15.16
2023-04-20T14:54:13.415Z,15.31
2023-04-20T14:59:16.597Z,15.13
2023-04-20T15:04:21.660Z,15.33
2023-04-20T15:09:24.517Z,15.24
2023-04-20T15:14:27.480Z,15.13
2023-04-20T15:19:30.208Z,15.09
2023-04-20T15:24:32.990Z,15.07
2023-04-20T15:29:36.420Z,14.97
2023-04-20T15:34:39.114Z,14.71
2023-04-20T15:39:41.800Z,14.66
2023-04-20T15:44:44.745Z,14.41
2023-04-20T15:49:47.473Z,14.36
2023-04-20T15:54:50.161Z,14.12
2023-04-20T15:59:52.757Z,14.02
2023-04-20T16:04:55.462Z,13.71
2023-04-20T16:09:58.123Z,13.99
2023-04-20T16:15:02.121Z,13.36
2023-04-20T16:20:08.614Z,13.74
2023-04-20T16:25:22.445Z,13.67
2023-04-20T16:30:25.182Z,13.58
2023-04-20T16:35:27.853Z,13.37
2023-04-20T16:40:31.048Z,13.29
2023-04-20T16:45:33.872Z,12.96
2023-04-20T16:50:38.074Z,12.92
2023-04-20T16:55:44.843Z,12.92
2023-04-20T17:00:47.487Z,12.68
2023-04-20T17:05:50.073Z,12.64
2023-04-20T17:10:52.717Z,12.62
2023-04-20T17:15:55.251Z,12.40
2023-04-20T17:20:58.735Z,12.33
2023-04-20T17:26:02.535Z,12.19
2023-04-20T17:31:05.434Z,12.12
2023-04-20T17:36:08.191Z,11.98
2023-04-20T17:41:10.953Z,11.96
2023-04-20T17:46:13.682Z,11.91
2023-04-20T17:51:16.385Z,11.83
2023-04-20T17:56:19.046Z,11.63
2023-04-20T18:01:22.188Z,11.71
2023-04-20T18:06:24.798Z,11.56
2023-04-20T18:11:27.981Z,11.40
2023-04-20T18:16:30.820Z,11.40
2023-04-20T18:21:34.877Z,11.26
2023-04-20T18:26:38.139Z,11.35
2023-04-20T18:31:41.284Z,11.05
2023-04-20T18:36:43.923Z,10.92
2023-04-20T18:41:46.684Z,10.70
2023-04-20T18:46:49.302Z,10.56
2023-04-20T18:51:52.032Z,10.32
2023-04-20T18:56:58.387Z,10.10
2023-04-20T19:02:05.641Z,10.20
2023-04-20T19:07:08.277Z,10.01
2023-04-20T19:12:11.003Z,9.67
2023-04-20T19:17:13.705Z,9.62
2023-04-20T19:22:16.323Z,9.47
2023-04-20T19:27:18.876Z,9.43
2023-04-20T19:32:21.611Z,9.28
2023-04-20T19:37:24.159Z,8.63
2023-04-20T19:42:26.705Z,8.99
2023-04-20T19:47:29.364Z,8.75
2023-04-20T19:52:34.446Z,8.81
2023-04-20T19:57:37.143Z,8.69
2023-04-20T20:02:41.290Z,8.68
2023-04-20T20:07:43.961Z,8.40
2023-04-20T20:12:47.089Z,8.41
2023-04-20T20:17:50.190Z,8.65
2023-04-20T20:22:52.936Z,8.48
2023-04-20T20:27:55.721Z,8.34
2023-04-20T20:32:59.147Z,8.25
2023-04-20T20:38:06.291Z,8.18
2023-04-20T20:43:08.969Z,8.30
2023-04-20T20:48:11.580Z,8.11
2023-04-20T20:53:17.322Z,7.89
2023-04-20T20:58:20.078Z,7.77
2023-04-20T21:03:22.898Z,8.07
2023-04-20T21:08:25.666Z,8.32
2023-04-20T21:13:28.264Z,8.43
2023-04-20T21:18:31.110Z,8.62
2023-04-20T21:23:33.887Z,8.73
2023-04-20T21:28:36.517Z,8.65
2023-04-20T21:33:39.229Z,8.51
2023-04-20T21:38:41.910Z,8.46
2023-04-20T21:43:44.595Z,8.45
2023-04-20T21:48:47.656Z,8.50
2023-04-20T21:53:50.257Z,8.54
2023-04-20T21:58:52.956Z,8.65
2023-04-20T22:03:56.388Z,8.80
2023-04-20T22:08:59.046Z,8.87
2023-04-20T22:14:01.903Z,8.87
2023-04-20T22:19:04.596Z,9.03
2023-04-20T22:24:07.430Z,9.07
2023-04-20T22:29:10.072Z,9.05
2023-04-20T22:34:12.867Z,8.95
2023-04-20T22:39:15.452Z,8.93
2023-04-20T22:44:18.114Z,8.89
2023-04-20T22:49:21.195Z,8.90
2023-04-20T22:54:24.631Z,8.85
2023-04-20T22:59:27.318Z,8.62
2023-04-20T23:04:29.807Z,8.74
2023-04-20T23:09:32.539Z,8.64
2023-04-20T23:14:37.024Z,8.35
2023-04-20T23:19:40.383Z,7.90
2023-04-20T23:24:43.059Z,7.58
2023-04-20T23:29:45.723Z,7.55
2023-04-20T23:34:48.312Z,7.47
2023-04-20T23:39:50.965Z,7.33
2023-04-20T23:44:53.513Z,6.96
2023-04-20T23:49:56.088Z,6.94
2023-04-20T23:54:58.691Z,6.87
